Argo II — SY5614 — position and weather

sailwx.info

Track history (hours):
 
Tides and Currents Weather Stations Pressure Air Temp Water Temp Dewpoint Dewpoint Depression Visibility Wind Speed Wind Dir Waves Ship Positions

Argo II

Last reported at 2017-Dec-11 17:00 UTC. Time now 2017-Dec-14 13:23 UTC.
Position N 40°50' E 024°57'.

Length 32 m; draft 3.8 m.

Type: Fishing. MMSI: 240259000.

Date/timePositionNaut miles runAvg speedWind from/ knotsBaromVisibWave heightAir tempDewpointWater temp
2017-Dec-11 17:00N 40°50' E 024°57'11 0.3
2017-Dec-10 02:30N 40°52' E 024°42'0 0.0
2017-Dec-10 02:01N 40°52' E 024°42'0 0.0
2017-Dec-10 01:31N 40°52' E 024°42'0 0.0
2017-Dec-10 01:01N 40°52' E 024°42'0 0.0
2017-Dec-10 00:31N 40°52' E 024°42'0 0.0
2017-Dec-10 00:01N 40°52' E 024°42'0 0.0
2017-Dec-09 23:31N 40°52' E 024°42'0 0.0
2017-Dec-09 23:01N 40°52' E 024°42'0 0.0
2017-Dec-09 22:31N 40°52' E 024°42'0 0.0
2017-Dec-09 22:01N 40°52' E 024°42'0 0.0
2017-Dec-09 21:31N 40°52' E 024°42'0 0.0
2017-Dec-09 21:00N 40°52' E 024°42'1 1.8
2017-Dec-09 20:30N 40°51' E 024°42'4 8.7
2017-Dec-09 20:00N 40°49' E 024°47'4 8.3
2017-Dec-09 19:31N 40°47' E 024°52'3 5.8
2017-Dec-09 19:01N 40°47' E 024°56'3 6.8
2017-Dec-09 18:31N 40°48' E 024°59'2 3.5
2017-Dec-09 18:01N 40°49' E 025°01'1 2.8
2017-Dec-09 17:30N 40°49' E 024°60'1 2.9
2017-Dec-09 17:01N 40°49' E 024°58'1 2.9
2017-Dec-09 16:31N 40°48' E 024°56'2 3.1
2017-Dec-09 16:01N 40°48' E 024°54'1 3.0
2017-Dec-09 15:31N 40°47' E 024°52'1 2.8
2017-Dec-09 15:01N 40°46' E 024°51'1 2.2
2017-Dec-09 14:31N 40°47' E 024°52'1 3.0
2017-Dec-09 14:01N 40°47' E 024°54'1 3.0
2017-Dec-09 13:31N 40°47' E 024°56'1 2.9
2017-Dec-09 13:00N 40°48' E 024°58'1 3.0
2017-Dec-09 12:31N 40°48' E 024°60'2 3.1
2017-Dec-09 12:00N 40°49' E 025°02'2 3.0
2017-Dec-09 11:29N 40°49' E 025°04'1 3.1
2017-Dec-09 11:00N 40°49' E 025°06'2 3.0
2017-Dec-09 10:29N 40°49' E 025°08'20 1.2
2017-Dec-08 17:37N 40°51' E 024°42'0 0.1
2017-Dec-08 17:31N 40°51' E 024°42'2 4.0
2017-Dec-08 17:01N 40°50' E 024°44'4 8.3
2017-Dec-08 16:30N 40°48' E 024°49'2 4.4
2017-Dec-08 16:01N 40°47' E 024°51'1 2.1
2017-Dec-08 15:30N 40°47' E 024°53'2 3.2
2017-Dec-08 15:01N 40°48' E 024°55'2 3.1
2017-Dec-08 14:30N 40°48' E 024°57'2 3.6
2017-Dec-08 14:00N 40°48' E 024°59'3 3.0
2017-Dec-08 13:06N 40°48' E 024°55'0 3.2
2017-Dec-08 13:01N 40°48' E 024°55'2 3.2
2017-Dec-08 12:30N 40°47' E 024°53'2 3.2
2017-Dec-08 12:01N 40°46' E 024°51'0 0.3
2017-Dec-08 11:30N 40°46' E 024°51'2 3.1
2017-Dec-08 11:01N 40°47' E 024°53'2 3.2
2017-Dec-08 10:30N 40°47' E 024°55'2 3.2
2017-Dec-08 10:00N 40°48' E 024°57'2 3.1
2017-Dec-08 09:31N 40°48' E 024°59'2 3.2
2017-Dec-08 09:01N 40°48' E 025°01'2 3.1
2017-Dec-08 08:30N 40°49' E 025°03'2 3.2
2017-Dec-08 08:00N 40°49' E 025°05'2 3.0
2017-Dec-08 07:30N 40°50' E 025°04'1 2.7
2017-Dec-08 07:00N 40°50' E 025°02'1 3.0
2017-Dec-08 06:31N 40°50' E 025°00'1 3.0
2017-Dec-08 06:00N 40°50' E 024°58'2 3.0
2017-Dec-08 05:30N 40°50' E 024°56'2 3.0
2017-Dec-08 05:01N 40°49' E 024°54'2 3.0
2017-Dec-08 04:31N 40°48' E 024°53'1 3.0
2017-Dec-08 04:01N 40°47' E 024°51'1 1.4
2017-Dec-08 03:30N 40°47' E 024°51'1 2.4
2017-Dec-08 03:01N 40°48' E 024°52'1 2.9
2017-Dec-08 02:30N 40°49' E 024°53'1 3.0
2017-Dec-08 02:01N 40°49' E 024°55'1 3.0
2017-Dec-08 01:31N 40°50' E 024°57'1 3.0
2017-Dec-08 01:00N 40°50' E 024°59'1 3.0
2017-Dec-08 00:30N 40°51' E 025°01'1 2.9
2017-Dec-08 00:01N 40°50' E 025°03'0 0.7
2017-Dec-07 23:30N 40°50' E 025°03'1 3.0
2017-Dec-07 23:01N 40°50' E 025°01'2 3.0
2017-Dec-07 22:30N 40°50' E 024°59'1 3.0
2017-Dec-07 22:00N 40°50' E 024°57'1 3.0
2017-Dec-07 21:30N 40°50' E 024°55'1 3.0
2017-Dec-07 21:01N 40°49' E 024°54'1 3.0
2017-Dec-07 20:31N 40°48' E 024°52'2 3.0
2017-Dec-07 20:01N 40°47' E 024°50'0 0.7
2017-Dec-07 19:30N 40°47' E 024°51'2 3.1
2017-Dec-07 19:00N 40°48' E 024°52'2 3.0
2017-Dec-07 18:31N 40°49' E 024°54'2 3.1
2017-Dec-07 18:00N 40°49' E 024°56'2 3.1
2017-Dec-07 17:30N 40°50' E 024°58'2 3.1
2017-Dec-07 17:01N 40°50' E 024°60'2 3.1
2017-Dec-07 16:28N 40°50' E 025°02'0 0.8
2017-Dec-07 15:59N 40°50' E 025°02'4 7.5
2017-Dec-07 15:30N 40°48' E 024°58'0 0.6
2017-Dec-07 15:01N 40°48' E 024°58'2 3.0
2017-Dec-07 14:30N 40°48' E 024°56'2 3.1
2017-Dec-07 14:01N 40°47' E 024°54'2 3.0
2017-Dec-07 13:31N 40°46' E 024°52'1 2.6
2017-Dec-07 13:00N 40°46' E 024°51'1 1.7
2017-Dec-07 12:30N 40°45' E 024°52'1 3.0
2017-Dec-07 12:00N 40°45' E 024°53'1 3.0
2017-Dec-07 11:31N 40°45' E 024°55'2 3.1
2017-Dec-07 11:00N 40°45' E 024°57'2 3.1
2017-Dec-07 10:30N 40°46' E 024°59'2 3.1
2017-Dec-07 10:00N 40°46' E 025°01'2 3.0
2017-Dec-07 09:28N 40°46' E 025°03'2 3.0
2017-Dec-07 08:50N 40°47' E 025°06'1 3.8
2017-Dec-07 08:30N 40°47' E 025°08'4 8.3
2017-Dec-07 07:59N 40°50' E 025°04'1 2.3
2017-Dec-07 07:28N 40°50' E 025°02'1 2.9
2017-Dec-07 07:00N 40°50' E 025°00'1 2.9
2017-Dec-07 06:30N 40°50' E 024°58'2 3.0
2017-Dec-07 06:00N 40°50' E 024°56'1 3.0
2017-Dec-07 05:31N 40°49' E 024°55'1 2.9
2017-Dec-07 05:01N 40°48' E 024°53'2 3.0
2017-Dec-07 04:30N 40°48' E 024°51'2 3.0
2017-Dec-07 04:00N 40°46' E 024°50'1 2.1
2017-Dec-07 03:31N 40°47' E 024°51'2 3.0
2017-Dec-07 03:00N 40°48' E 024°52'2 3.0
2017-Dec-07 02:30N 40°49' E 024°54'2 3.2
2017-Dec-07 02:01N 40°50' E 024°56'2 3.1
2017-Dec-07 01:30N 40°50' E 024°58'2 3.0
2017-Dec-07 01:00N 40°50' E 025°00'2 2.9
2017-Dec-07 00:29N 40°50' E 025°02'2 3.3
2017-Dec-06 23:58N 40°50' E 025°04'1 1.6
2017-Dec-06 23:25N 40°50' E 025°03'1 3.0
2017-Dec-06 23:00N 40°50' E 025°01'1 2.9
2017-Dec-06 22:30N 40°49' E 024°60'1 3.0
2017-Dec-06 22:01N 40°49' E 024°58'1 2.9
2017-Dec-06 21:31N 40°49' E 024°56'2 3.0
2017-Dec-06 21:00N 40°48' E 024°54'  
2017-Dec-04 10:30N 40°44' E 024°53'2 3.0
2017-Dec-04 10:00N 40°45' E 024°55'2 3.0
2017-Dec-04 09:30N 40°45' E 024°57'2 3.0
2017-Dec-04 09:00N 40°45' E 024°59'2 3.0
2017-Dec-04 08:30N 40°46' E 025°01'3 3.0
2017-Dec-04 07:33N 40°46' E 025°05'0 3.2
2017-Dec-04 07:30N 40°46' E 025°05'2 3.0
2017-Dec-04 06:56N 40°48' E 025°06'  
Track history (hours):
 
Tides and Currents Weather Stations Pressure Air Temp Water Temp Dewpoint Dewpoint Depression Visibility Wind Speed Wind Dir Waves Ship Positions

Argo II

Last reported at 2017-Dec-11 17:00 UTC. Time now 2017-Dec-14 13:23 UTC.
Position N 40°50' E 024°57'.

Length 32 m; draft 3.8 m.

Type: Fishing. MMSI: 240259000.

Date/timePositionNaut miles runAvg speedWind from/ knotsBaromVisibWave heightAir tempDewpointWater temp
2017-Dec-11 17:00N 40°50' E 024°57'11 0.3
2017-Dec-10 02:30N 40°52' E 024°42'0 0.0
2017-Dec-10 02:01N 40°52' E 024°42'0 0.0
2017-Dec-10 01:31N 40°52' E 024°42'0 0.0
2017-Dec-10 01:01N 40°52' E 024°42'0 0.0
2017-Dec-10 00:31N 40°52' E 024°42'0 0.0
2017-Dec-10 00:01N 40°52' E 024°42'0 0.0
2017-Dec-09 23:31N 40°52' E 024°42'0 0.0
2017-Dec-09 23:01N 40°52' E 024°42'0 0.0
2017-Dec-09 22:31N 40°52' E 024°42'0 0.0
2017-Dec-09 22:01N 40°52' E 024°42'0 0.0
2017-Dec-09 21:31N 40°52' E 024°42'0 0.0
2017-Dec-09 21:00N 40°52' E 024°42'1 1.8
2017-Dec-09 20:30N 40°51' E 024°42'4 8.7
2017-Dec-09 20:00N 40°49' E 024°47'4 8.3
2017-Dec-09 19:31N 40°47' E 024°52'3 5.8
2017-Dec-09 19:01N 40°47' E 024°56'3 6.8
2017-Dec-09 18:31N 40°48' E 024°59'2 3.5
2017-Dec-09 18:01N 40°49' E 025°01'1 2.8
2017-Dec-09 17:30N 40°49' E 024°60'1 2.9
2017-Dec-09 17:01N 40°49' E 024°58'1 2.9
2017-Dec-09 16:31N 40°48' E 024°56'2 3.1
2017-Dec-09 16:01N 40°48' E 024°54'1 3.0
2017-Dec-09 15:31N 40°47' E 024°52'1 2.8
2017-Dec-09 15:01N 40°46' E 024°51'1 2.2
2017-Dec-09 14:31N 40°47' E 024°52'1 3.0
2017-Dec-09 14:01N 40°47' E 024°54'1 3.0
2017-Dec-09 13:31N 40°47' E 024°56'1 2.9
2017-Dec-09 13:00N 40°48' E 024°58'1 3.0
2017-Dec-09 12:31N 40°48' E 024°60'2 3.1
2017-Dec-09 12:00N 40°49' E 025°02'2 3.0
2017-Dec-09 11:29N 40°49' E 025°04'1 3.1
2017-Dec-09 11:00N 40°49' E 025°06'2 3.0
2017-Dec-09 10:29N 40°49' E 025°08'20 1.2
2017-Dec-08 17:37N 40°51' E 024°42'0 0.1
2017-Dec-08 17:31N 40°51' E 024°42'2 4.0
2017-Dec-08 17:01N 40°50' E 024°44'4 8.3
2017-Dec-08 16:30N 40°48' E 024°49'2 4.4
2017-Dec-08 16:01N 40°47' E 024°51'1 2.1
2017-Dec-08 15:30N 40°47' E 024°53'2 3.2
2017-Dec-08 15:01N 40°48' E 024°55'2 3.1
2017-Dec-08 14:30N 40°48' E 024°57'2 3.6
2017-Dec-08 14:00N 40°48' E 024°59'3 3.0
2017-Dec-08 13:06N 40°48' E 024°55'0 3.2
2017-Dec-08 13:01N 40°48' E 024°55'2 3.2
2017-Dec-08 12:30N 40°47' E 024°53'2 3.2
2017-Dec-08 12:01N 40°46' E 024°51'0 0.3
2017-Dec-08 11:30N 40°46' E 024°51'2 3.1
2017-Dec-08 11:01N 40°47' E 024°53'2 3.2
2017-Dec-08 10:30N 40°47' E 024°55'2 3.2
2017-Dec-08 10:00N 40°48' E 024°57'2 3.1
2017-Dec-08 09:31N 40°48' E 024°59'2 3.2
2017-Dec-08 09:01N 40°48' E 025°01'2 3.1
2017-Dec-08 08:30N 40°49' E 025°03'2 3.2
2017-Dec-08 08:00N 40°49' E 025°05'2 3.0
2017-Dec-08 07:30N 40°50' E 025°04'1 2.7
2017-Dec-08 07:00N 40°50' E 025°02'1 3.0
2017-Dec-08 06:31N 40°50' E 025°00'1 3.0
2017-Dec-08 06:00N 40°50' E 024°58'2 3.0
2017-Dec-08 05:30N 40°50' E 024°56'2 3.0
2017-Dec-08 05:01N 40°49' E 024°54'2 3.0
2017-Dec-08 04:31N 40°48' E 024°53'1 3.0
2017-Dec-08 04:01N 40°47' E 024°51'1 1.4
2017-Dec-08 03:30N 40°47' E 024°51'1 2.4
2017-Dec-08 03:01N 40°48' E 024°52'1 2.9
2017-Dec-08 02:30N 40°49' E 024°53'1 3.0
2017-Dec-08 02:01N 40°49' E 024°55'1 3.0
2017-Dec-08 01:31N 40°50' E 024°57'1 3.0
2017-Dec-08 01:00N 40°50' E 024°59'1 3.0
2017-Dec-08 00:30N 40°51' E 025°01'1 2.9
2017-Dec-08 00:01N 40°50' E 025°03'0 0.7
2017-Dec-07 23:30N 40°50' E 025°03'1 3.0
2017-Dec-07 23:01N 40°50' E 025°01'2 3.0
2017-Dec-07 22:30N 40°50' E 024°59'1 3.0
2017-Dec-07 22:00N 40°50' E 024°57'1 3.0
2017-Dec-07 21:30N 40°50' E 024°55'1 3.0
2017-Dec-07 21:01N 40°49' E 024°54'1 3.0
2017-Dec-07 20:31N 40°48' E 024°52'2 3.0
2017-Dec-07 20:01N 40°47' E 024°50'0 0.7
2017-Dec-07 19:30N 40°47' E 024°51'2 3.1
2017-Dec-07 19:00N 40°48' E 024°52'2 3.0
2017-Dec-07 18:31N 40°49' E 024°54'2 3.1
2017-Dec-07 18:00N 40°49' E 024°56'2 3.1
2017-Dec-07 17:30N 40°50' E 024°58'2 3.1
2017-Dec-07 17:01N 40°50' E 024°60'2 3.1
2017-Dec-07 16:28N 40°50' E 025°02'0 0.8
2017-Dec-07 15:59N 40°50' E 025°02'4 7.5
2017-Dec-07 15:30N 40°48' E 024°58'0 0.6
2017-Dec-07 15:01N 40°48' E 024°58'2 3.0
2017-Dec-07 14:30N 40°48' E 024°56'2 3.1
2017-Dec-07 14:01N 40°47' E 024°54'2 3.0
2017-Dec-07 13:31N 40°46' E 024°52'1 2.6
2017-Dec-07 13:00N 40°46' E 024°51'1 1.7
2017-Dec-07 12:30N 40°45' E 024°52'1 3.0
2017-Dec-07 12:00N 40°45' E 024°53'1 3.0
2017-Dec-07 11:31N 40°45' E 024°55'2 3.1
2017-Dec-07 11:00N 40°45' E 024°57'2 3.1
2017-Dec-07 10:30N 40°46' E 024°59'2 3.1
2017-Dec-07 10:00N 40°46' E 025°01'2 3.0
2017-Dec-07 09:28N 40°46' E 025°03'2 3.0
2017-Dec-07 08:50N 40°47' E 025°06'1 3.8
2017-Dec-07 08:30N 40°47' E 025°08'4 8.3
2017-Dec-07 07:59N 40°50' E 025°04'1 2.3
2017-Dec-07 07:28N 40°50' E 025°02'1 2.9
2017-Dec-07 07:00N 40°50' E 025°00'1 2.9
2017-Dec-07 06:30N 40°50' E 024°58'2 3.0
2017-Dec-07 06:00N 40°50' E 024°56'1 3.0
2017-Dec-07 05:31N 40°49' E 024°55'1 2.9
2017-Dec-07 05:01N 40°48' E 024°53'2 3.0
2017-Dec-07 04:30N 40°48' E 024°51'2 3.0
2017-Dec-07 04:00N 40°46' E 024°50'1 2.1
2017-Dec-07 03:31N 40°47' E 024°51'2 3.0
2017-Dec-07 03:00N 40°48' E 024°52'2 3.0
2017-Dec-07 02:30N 40°49' E 024°54'2 3.2
2017-Dec-07 02:01N 40°50' E 024°56'2 3.1
2017-Dec-07 01:30N 40°50' E 024°58'2 3.0
2017-Dec-07 01:00N 40°50' E 025°00'2 2.9
2017-Dec-07 00:29N 40°50' E 025°02'2 3.3
2017-Dec-06 23:58N 40°50' E 025°04'1 1.6
2017-Dec-06 23:25N 40°50' E 025°03'1 3.0
2017-Dec-06 23:00N 40°50' E 025°01'1 2.9
2017-Dec-06 22:30N 40°49' E 024°60'1 3.0
2017-Dec-06 22:01N 40°49' E 024°58'1 2.9
2017-Dec-06 21:31N 40°49' E 024°56'2 3.0
2017-Dec-06 21:00N 40°48' E 024°54'  
2017-Dec-04 10:30N 40°44' E 024°53'2 3.0
2017-Dec-04 10:00N 40°45' E 024°55'2 3.0
2017-Dec-04 09:30N 40°45' E 024°57'2 3.0
2017-Dec-04 09:00N 40°45' E 024°59'2 3.0
2017-Dec-04 08:30N 40°46' E 025°01'3 3.0
2017-Dec-04 07:33N 40°46' E 025°05'0 3.2
2017-Dec-04 07:30N 40°46' E 025°05'2 3.0
2017-Dec-04 06:56N 40°48' E 025°06'  

Dump ship's entire track history